createdAt,value
2024-01-24T00:02:06.968Z,7.65
2024-01-24T00:04:39.446Z,9.73
2024-01-24T00:07:09.442Z,11.00
2024-01-24T00:09:39.371Z,12.73
2024-01-24T00:12:10.228Z,11.57
2024-01-24T00:14:40.291Z,9.48
2024-01-24T00:17:10.212Z,8.32
2024-01-24T00:19:42.736Z,14.10
2024-01-24T00:22:13.185Z,9.35
2024-01-24T00:24:43.150Z,5.80
2024-01-24T00:27:13.265Z,9.05
2024-01-24T00:29:43.713Z,9.93
2024-01-24T00:32:13.588Z,7.00
2024-01-24T00:34:46.103Z,5.75
2024-01-24T00:37:16.560Z,8.80
2024-01-24T00:39:48.039Z,5.72
2024-01-24T00:42:18.023Z,10.27
2024-01-24T00:44:46.548Z,8.57
2024-01-24T00:47:16.616Z,6.82
2024-01-24T00:49:49.104Z,10.23
2024-01-24T00:52:19.004Z,7.30
2024-01-24T00:54:48.993Z,7.55
2024-01-24T00:57:18.974Z,9.88
2024-01-24T00:59:48.876Z,7.32
2024-01-24T01:02:19.340Z,8.23
2024-01-24T01:04:51.852Z,8.90
2024-01-24T01:07:21.789Z,6.20
2024-01-24T01:09:51.984Z,10.93
2024-01-24T01:12:21.928Z,6.45
2024-01-24T01:14:52.058Z,5.75
2024-01-24T01:17:21.952Z,5.90
2024-01-24T01:19:54.417Z,7.53
2024-01-24T01:22:24.668Z,7.22
2024-01-24T01:24:54.640Z,7.75
2024-01-24T01:27:24.560Z,4.55
2024-01-24T01:29:54.514Z,5.55
2024-01-24T01:32:24.506Z,4.07
2024-01-24T01:34:57.219Z,4.68
2024-01-24T01:37:27.533Z,6.03
2024-01-24T01:39:57.597Z,5.82
2024-01-24T01:42:27.636Z,5.05
2024-01-24T01:44:57.551Z,3.85
2024-01-24T01:47:28.355Z,4.78
2024-01-24T01:50:01.247Z,3.05
2024-01-24T01:52:31.715Z,3.35
2024-01-24T01:55:01.719Z,5.60
2024-01-24T01:57:31.702Z,3.17
2024-01-24T02:00:01.919Z,3.40
2024-01-24T02:02:34.360Z,3.13
2024-01-24T02:05:08.138Z,3.40
2024-01-24T02:07:38.255Z,4.30
2024-01-24T02:10:08.763Z,5.90
2024-01-24T02:12:38.722Z,3.10
2024-01-24T02:15:10.237Z,3.55
2024-01-24T02:17:40.218Z,3.47
2024-01-24T02:20:14.395Z,2.95
2024-01-24T02:22:44.333Z,3.33
2024-01-24T02:25:16.877Z,3.10
2024-01-24T02:27:47.988Z,4.90
2024-01-24T02:30:18.951Z,4.05
2024-01-24T02:32:49.018Z,1.73
2024-01-24T02:35:19.777Z,1.83
2024-01-24T02:37:49.685Z,2.72
2024-01-24T02:40:22.711Z,1.63
2024-01-24T02:42:52.660Z,3.55
2024-01-24T02:45:22.723Z,1.23
2024-01-24T02:47:52.781Z,2.67
2024-01-24T02:50:22.744Z,1.30
2024-01-24T02:52:52.802Z,2.22
2024-01-24T02:55:25.269Z,2.53
2024-01-24T02:57:55.270Z,1.17
2024-01-24T03:00:25.295Z,1.05
2024-01-24T03:02:55.198Z,1.30
2024-01-24T03:05:25.155Z,2.13
2024-01-24T03:07:55.068Z,1.05
2024-01-24T03:10:28.779Z,0.93
2024-01-24T03:12:58.858Z,1.10
2024-01-24T03:15:29.008Z,0.70
2024-01-24T03:17:59.139Z,2.45
2024-01-24T03:20:29.087Z,0.98
2024-01-24T03:22:59.551Z,1.15
2024-01-24T03:25:32.754Z,1.35
2024-01-24T03:28:03.301Z,0.60
2024-01-24T03:30:35.052Z,0.55
2024-01-24T03:33:06.019Z,0.85
2024-01-24T03:35:36.009Z,1.50
2024-01-24T03:38:05.982Z,0.57
2024-01-24T03:40:38.607Z,0.47
2024-01-24T03:43:10.018Z,0.88
2024-01-24T03:45:40.716Z,1.15
2024-01-24T03:48:11.415Z,1.05
2024-01-24T03:50:42.023Z,0.50
2024-01-24T03:53:11.949Z,2.35
2024-01-24T03:55:44.590Z,1.20
2024-01-24T03:58:14.549Z,0.60
2024-01-24T04:00:44.520Z,0.80
2024-01-24T04:03:14.539Z,0.88
2024-01-24T04:05:44.515Z,1.20
2024-01-24T04:08:14.454Z,1.30
2024-01-24T04:10:47.058Z,1.70
2024-01-24T04:13:16.967Z,3.00
2024-01-24T04:15:47.174Z,1.73
2024-01-24T04:18:17.237Z,1.00
2024-01-24T04:20:47.363Z,1.02
2024-01-24T04:23:17.314Z,0.60
2024-01-24T04:25:51.005Z,1.30
2024-01-24T04:28:21.033Z,0.93
2024-01-24T04:30:50.972Z,1.60
2024-01-24T04:33:21.038Z,1.60
2024-01-24T04:35:51.051Z,1.67
2024-01-24T04:38:21.035Z,1.05
2024-01-24T04:40:56.422Z,1.02
2024-01-24T04:43:26.379Z,1.85
2024-01-24T04:45:56.307Z,1.45
2024-01-24T04:48:26.390Z,0.82
2024-01-24T04:50:56.399Z,2.58
2024-01-24T04:53:26.332Z,2.38
2024-01-24T04:55:58.816Z,1.83
2024-01-24T04:58:28.937Z,2.28
2024-01-24T05:00:59.577Z,2.53
2024-01-24T05:03:29.569Z,1.55
2024-01-24T05:06:04.837Z,3.45
2024-01-24T05:08:40.410Z,1.20
2024-01-24T05:11:12.935Z,1.48
2024-01-24T05:13:43.037Z,2.47
2024-01-24T05:16:12.898Z,2.28
2024-01-24T05:18:42.890Z,2.55
2024-01-24T05:21:12.952Z,3.33
2024-01-24T05:23:43.928Z,2.38
2024-01-24T05:26:16.625Z,1.30
2024-01-24T05:28:46.530Z,2.90
2024-01-24T05:31:16.553Z,1.98
2024-01-24T05:33:46.598Z,3.45
2024-01-24T05:36:16.618Z,4.22
2024-01-24T05:38:46.605Z,3.88
2024-01-24T05:41:20.125Z,4.20
2024-01-24T05:43:50.247Z,5.35
2024-01-24T05:46:20.130Z,6.30
2024-01-24T05:48:50.175Z,6.47
2024-01-24T05:51:20.299Z,9.68
2024-01-24T05:53:50.204Z,5.63
2024-01-24T05:56:23.116Z,6.47
2024-01-24T05:58:53.026Z,6.85
2024-01-24T06:01:23.047Z,9.15
2024-01-24T06:03:53.216Z,8.20
2024-01-24T06:06:23.315Z,8.73
2024-01-24T06:08:53.823Z,5.93
2024-01-24T06:11:26.286Z,8.15
2024-01-24T06:13:56.198Z,8.73
2024-01-24T06:16:26.102Z,7.50
2024-01-24T06:18:56.054Z,10.90
2024-01-24T06:21:26.021Z,8.48
2024-01-24T06:23:55.978Z,11.18
2024-01-24T06:26:28.605Z,7.85
2024-01-24T06:28:58.479Z,10.43
2024-01-24T06:31:28.434Z,10.73
2024-01-24T06:33:58.407Z,10.65
2024-01-24T06:36:30.017Z,11.32
2024-01-24T06:39:00.006Z,10.18
2024-01-24T06:41:32.487Z,12.00
2024-01-24T06:44:02.511Z,14.45
2024-01-24T06:46:32.505Z,8.60
2024-01-24T06:49:02.590Z,10.38
2024-01-24T06:51:32.739Z,8.35
2024-01-24T06:54:02.742Z,18.65
2024-01-24T06:56:35.443Z,12.00
2024-01-24T06:59:05.993Z,14.50
2024-01-24T07:01:35.975Z,10.23
2024-01-24T07:04:06.403Z,14.45
2024-01-24T07:06:36.548Z,18.20
2024-01-24T07:09:06.610Z,12.82
2024-01-24T07:11:41.511Z,12.75
2024-01-24T07:14:11.400Z,15.02
2024-01-24T07:16:41.316Z,12.02
2024-01-24T07:19:11.353Z,10.35
2024-01-24T07:21:41.432Z,19.45
2024-01-24T07:24:11.769Z,13.73
2024-01-24T07:26:44.987Z,10.82
2024-01-24T07:29:14.981Z,12.82
2024-01-24T07:31:44.883Z,10.63
2024-01-24T07:34:15.691Z,14.60
2024-01-24T07:36:45.954Z,13.90
2024-01-24T07:39:15.924Z,13.85
2024-01-24T07:41:48.293Z,12.13
2024-01-24T07:44:18.328Z,14.02
2024-01-24T07:46:48.298Z,20.25
2024-01-24T07:49:18.946Z,21.40
2024-01-24T07:51:50.534Z,21.20
2024-01-24T07:54:23.636Z,16.92
2024-01-24T07:56:57.037Z,19.45
2024-01-24T07:59:27.048Z,20.58
2024-01-24T08:01:57.144Z,20.58
2024-01-24T08:04:27.187Z,20.42
2024-01-24T08:06:57.567Z,26.83
2024-01-24T08:09:27.703Z,19.25
2024-01-24T08:12:00.321Z,20.38
2024-01-24T08:14:30.513Z,25.60
2024-01-24T08:17:05.111Z,21.98
2024-01-24T08:19:35.160Z,22.70
2024-01-24T08:22:05.366Z,14.65
2024-01-24T08:24:35.419Z,20.85
2024-01-24T08:27:08.204Z,18.38
2024-01-24T08:29:38.477Z,20.30
2024-01-24T08:32:09.086Z,21.05
2024-01-24T08:34:40.306Z,21.35
2024-01-24T08:37:10.605Z,20.80
2024-01-24T08:39:40.625Z,19.65
2024-01-24T08:42:13.180Z,18.48
2024-01-24T08:44:43.088Z,20.50
2024-01-24T08:47:13.382Z,17.83
2024-01-24T08:49:43.327Z,21.90
2024-01-24T08:52:13.544Z,17.90
2024-01-24T08:54:46.624Z,20.83
2024-01-24T08:57:19.453Z,18.23
2024-01-24T08:59:49.565Z,17.70
2024-01-24T09:02:20.790Z,17.77
2024-01-24T09:04:53.050Z,18.42
2024-01-24T09:07:23.824Z,17.05
2024-01-24T09:09:53.863Z,13.98
2024-01-24T09:12:26.540Z,20.80
2024-01-24T09:14:56.517Z,20.60
2024-01-24T09:17:26.610Z,15.48
2024-01-24T09:19:56.625Z,14.90
2024-01-24T09:22:26.914Z,19.20
2024-01-24T09:24:56.863Z,20.83
2024-01-24T09:27:29.425Z,22.45
2024-01-24T09:29:59.317Z,22.42
2024-01-24T09:32:29.328Z,18.92
2024-01-24T09:34:59.513Z,15.23
2024-01-24T09:37:29.526Z,13.85
2024-01-24T09:39:59.832Z,21.88
2024-01-24T09:42:34.954Z,19.60
2024-01-24T09:45:11.060Z,20.42
2024-01-24T09:47:42.439Z,22.20
2024-01-24T09:50:14.290Z,17.38
2024-01-24T09:52:47.240Z,21.77
2024-01-24T09:55:19.713Z,17.27
2024-01-24T09:57:52.530Z,17.95
2024-01-24T10:00:23.005Z,23.35
2024-01-24T10:02:53.172Z,16.95
2024-01-24T10:05:27.420Z,23.88
2024-01-24T10:07:58.999Z,17.92
2024-01-24T10:10:31.872Z,19.38
2024-01-24T10:13:06.874Z,17.88
2024-01-24T10:15:38.999Z,14.88
2024-01-24T10:18:11.321Z,17.75
2024-01-24T10:20:44.610Z,17.05
2024-01-24T10:23:22.849Z,17.52
2024-01-24T10:25:52.873Z,22.63
2024-01-24T10:28:25.626Z,18.02
2024-01-24T10:30:55.665Z,18.15
2024-01-24T10:33:26.673Z,19.23
2024-01-24T10:35:59.402Z,20.52
2024-01-24T10:38:34.980Z,14.82
2024-01-24T10:41:05.847Z,18.88
2024-01-24T10:43:42.845Z,17.65
2024-01-24T10:46:13.926Z,14.35
2024-01-24T10:48:45.121Z,17.27
2024-01-24T10:51:15.611Z,20.55
2024-01-24T10:53:47.493Z,17.08
2024-01-24T10:56:19.615Z,21.23
2024-01-24T10:58:53.159Z,23.92
2024-01-24T11:01:23.267Z,18.00
2024-01-24T11:03:55.272Z,19.60
2024-01-24T11:06:28.560Z,16.00
2024-01-24T11:09:04.884Z,23.17
2024-01-24T11:11:37.579Z,17.15
2024-01-24T11:14:12.959Z,15.48
2024-01-24T11:16:42.937Z,19.92
2024-01-24T11:19:24.529Z,17.35
2024-01-24T11:21:56.489Z,20.38
2024-01-24T11:24:51.529Z,19.17
2024-01-24T11:27:34.185Z,20.98
2024-01-24T11:30:20.728Z,15.88
2024-01-24T11:33:06.544Z,20.25
2024-01-24T11:35:38.651Z,18.70
2024-01-24T11:38:19.995Z,17.35
2024-01-24T11:40:56.285Z,22.83
2024-01-24T11:43:27.902Z,16.35
2024-01-24T11:46:02.877Z,15.73
2024-01-24T11:48:34.522Z,22.80
2024-01-24T11:51:05.635Z,17.58
2024-01-24T11:53:36.155Z,14.40
2024-01-24T11:56:08.340Z,15.95
2024-01-24T11:58:38.337Z,15.43
2024-01-24T12:01:13.688Z,19.33
2024-01-24T12:03:51.298Z,16.77
2024-01-24T12:06:22.574Z,14.60
2024-01-24T12:08:53.915Z,16.75
2024-01-24T12:11:25.025Z,18.17
2024-01-24T12:13:55.073Z,18.92
2024-01-24T12:16:29.580Z,19.80
2024-01-24T12:19:00.371Z,14.55
2024-01-24T12:21:30.924Z,20.90
2024-01-24T12:24:01.002Z,19.63
2024-01-24T12:26:33.417Z,17.33
2024-01-24T12:29:04.742Z,17.58
2024-01-24T12:31:39.406Z,11.50
2024-01-24T12:34:11.231Z,12.43
2024-01-24T12:36:41.418Z,14.27
2024-01-24T12:39:11.555Z,16.25
2024-01-24T12:41:41.961Z,17.63
2024-01-24T12:44:13.351Z,19.08
2024-01-24T12:46:46.331Z,16.00
2024-01-24T12:49:17.036Z,16.00
2024-01-24T12:51:47.129Z,13.75
2024-01-24T12:54:17.132Z,13.32
2024-01-24T12:56:49.325Z,18.40
2024-01-24T12:59:21.817Z,12.65
2024-01-24T13:01:57.391Z,18.10
2024-01-24T13:04:27.655Z,13.80
2024-01-24T13:06:57.933Z,12.82
2024-01-24T13:09:28.117Z,11.50
2024-01-24T13:11:59.710Z,18.85
2024-01-24T13:14:30.127Z,17.95
2024-01-24T13:17:04.779Z,16.48
2024-01-24T13:19:35.068Z,15.43
2024-01-24T13:22:05.090Z,16.70
2024-01-24T13:24:35.436Z,17.50
2024-01-24T13:27:05.666Z,13.23
2024-01-24T13:29:35.702Z,17.88
2024-01-24T13:32:09.272Z,15.30
2024-01-24T13:34:39.259Z,11.70
2024-01-24T13:37:09.444Z,17.13
2024-01-24T13:39:40.481Z,15.95
2024-01-24T13:42:10.896Z,11.75
2024-01-24T13:44:40.884Z,15.98
2024-01-24T13:47:13.413Z,16.45
2024-01-24T13:49:44.824Z,16.50
2024-01-24T13:52:15.412Z,12.57
2024-01-24T13:54:46.096Z,13.23
2024-01-24T13:57:16.216Z,13.80
2024-01-24T13:59:46.176Z,13.65
2024-01-24T14:02:18.959Z,17.27
2024-01-24T14:04:49.110Z,13.90
2024-01-24T14:07:20.889Z,15.77
2024-01-24T14:09:50.953Z,14.15
2024-01-24T14:12:21.174Z,14.95
2024-01-24T14:14:51.127Z,14.60
2024-01-24T14:17:24.059Z,19.58
2024-01-24T14:19:54.143Z,11.95
2024-01-24T14:22:24.253Z,17.42
2024-01-24T14:24:54.537Z,14.05
2024-01-24T14:27:27.589Z,9.27
2024-01-24T14:29:57.971Z,13.30
2024-01-24T14:32:34.456Z,15.68
2024-01-24T14:35:04.555Z,12.27
2024-01-24T14:37:34.670Z,11.80
2024-01-24T14:40:04.847Z,12.07
2024-01-24T14:42:36.654Z,15.25
2024-01-24T14:45:07.882Z,14.30
2024-01-24T14:47:40.438Z,13.35
2024-01-24T14:50:12.611Z,17.10
2024-01-24T14:52:42.681Z,14.45
2024-01-24T14:55:13.495Z,21.02
2024-01-24T14:57:46.631Z,12.73
2024-01-24T15:00:21.153Z,14.65
2024-01-24T15:02:53.954Z,13.52
2024-01-24T15:05:25.405Z,16.20
2024-01-24T15:07:55.920Z,13.05
2024-01-24T15:10:26.067Z,15.40
2024-01-24T15:12:56.040Z,13.60
2024-01-24T15:15:28.236Z,12.70
2024-01-24T15:18:00.974Z,15.27
2024-01-24T15:20:38.301Z,12.73
2024-01-24T15:44:20.169Z,13.48
2024-01-24T16:13:13.398Z,13.80
2024-01-24T16:15:43.486Z,14.02
2024-01-24T16:18:15.182Z,16.60
2024-01-24T16:20:45.181Z,14.45
2024-01-24T16:23:15.113Z,17.05
2024-01-24T16:25:45.100Z,17.25
2024-01-24T16:28:17.694Z,16.10
2024-01-24T16:30:47.635Z,15.30
2024-01-24T16:33:18.721Z,18.10
2024-01-24T16:35:48.775Z,15.52
2024-01-24T16:38:18.786Z,15.93
2024-01-24T16:40:48.781Z,17.17
2024-01-24T16:43:21.480Z,20.90
2024-01-24T16:45:52.004Z,18.65
2024-01-24T16:48:22.063Z,23.67
2024-01-24T16:50:52.204Z,15.25
2024-01-24T16:53:22.181Z,18.58
2024-01-24T16:55:52.285Z,15.50
2024-01-24T16:58:24.863Z,16.50
2024-01-24T17:00:54.882Z,16.23
2024-01-24T17:03:24.975Z,17.27
2024-01-24T17:05:54.941Z,15.32
2024-01-24T17:08:24.868Z,11.25
2024-01-24T17:10:54.769Z,17.52
2024-01-24T17:13:27.217Z,21.15
2024-01-24T17:15:57.119Z,14.07
2024-01-24T17:18:27.809Z,13.57
2024-01-24T17:20:57.841Z,20.02
2024-01-24T17:23:27.723Z,15.55
2024-01-24T17:25:57.692Z,13.98
2024-01-24T17:28:30.225Z,15.90
2024-01-24T17:31:00.272Z,20.50
2024-01-24T17:33:30.417Z,16.67
2024-01-24T17:36:00.428Z,15.45
2024-01-24T17:38:30.881Z,16.70
2024-01-24T17:41:01.619Z,12.48
2024-01-24T17:43:35.286Z,16.98
2024-01-24T17:46:05.673Z,17.08
2024-01-24T17:48:38.156Z,15.38
2024-01-24T17:51:08.536Z,16.75
2024-01-24T17:53:38.642Z,16.02
2024-01-24T17:56:09.494Z,16.83
2024-01-24T17:58:42.255Z,20.27
2024-01-24T18:01:12.320Z,12.68
2024-01-24T18:03:42.469Z,14.35
2024-01-24T18:06:12.954Z,21.20
2024-01-24T18:08:42.981Z,13.90
2024-01-24T18:11:13.392Z,15.93
2024-01-24T18:13:46.100Z,17.70
2024-01-24T18:16:16.220Z,16.67
2024-01-24T18:18:47.835Z,17.10
2024-01-24T18:21:17.908Z,19.20
2024-01-24T18:23:47.846Z,18.65
2024-01-24T18:26:17.755Z,16.25
2024-01-24T18:28:51.771Z,18.67
2024-01-24T18:31:22.014Z,14.57
2024-01-24T18:33:52.021Z,18.58
2024-01-24T18:36:22.106Z,16.98
2024-01-24T18:38:52.101Z,21.63
2024-01-24T18:41:23.357Z,16.42
2024-01-24T18:43:55.900Z,16.73
2024-01-24T18:46:26.688Z,15.23
2024-01-24T18:48:57.314Z,18.98
2024-01-24T18:51:28.841Z,18.27
2024-01-24T18:53:58.989Z,17.33
2024-01-24T18:56:30.284Z,16.98
2024-01-24T18:59:03.642Z,17.50
2024-01-24T19:01:34.086Z,16.20
2024-01-24T19:04:04.262Z,14.15
2024-01-24T19:06:34.350Z,17.33
2024-01-24T19:09:05.305Z,17.00
2024-01-24T19:11:35.422Z,16.70
2024-01-24T19:14:08.103Z,17.48
2024-01-24T19:16:38.376Z,15.13
2024-01-24T19:19:08.749Z,18.00
2024-01-24T19:21:40.459Z,12.48
2024-01-24T19:24:10.709Z,16.30
2024-01-24T19:26:44.300Z,15.25
2024-01-24T19:29:17.094Z,17.52
2024-01-24T19:31:47.362Z,15.73
2024-01-24T19:34:17.639Z,16.55
2024-01-24T19:36:47.719Z,20.77
2024-01-24T19:39:17.847Z,18.98
2024-01-24T19:41:47.827Z,15.52
2024-01-24T19:44:20.829Z,18.52
2024-01-24T19:46:52.862Z,14.73
2024-01-24T19:49:23.081Z,13.73
2024-01-24T19:51:54.194Z,15.93
2024-01-24T19:54:24.740Z,18.33
2024-01-24T19:56:55.748Z,15.10
2024-01-24T19:59:28.328Z,18.88
2024-01-24T20:01:59.086Z,16.95
2024-01-24T20:04:29.214Z,16.00
2024-01-24T20:06:59.316Z,18.40
2024-01-24T20:09:29.310Z,17.48
2024-01-24T20:11:59.297Z,17.85
2024-01-24T20:14:31.880Z,17.83
2024-01-24T20:17:02.047Z,17.52
2024-01-24T20:19:32.225Z,18.17
2024-01-24T20:22:02.231Z,20.60
2024-01-24T20:24:32.289Z,19.30
2024-01-24T20:27:02.379Z,18.70
2024-01-24T20:29:35.106Z,16.50
2024-01-24T20:32:05.385Z,18.95
2024-01-24T20:34:35.600Z,18.67
2024-01-24T20:37:07.211Z,20.80
2024-01-24T20:39:37.368Z,20.02
2024-01-24T20:42:11.239Z,21.20
2024-01-24T20:44:46.624Z,22.13
2024-01-24T20:47:17.052Z,20.10
2024-01-24T20:49:47.246Z,20.95
2024-01-24T20:52:17.347Z,19.00
2024-01-24T20:54:47.375Z,23.90
2024-01-24T20:57:17.606Z,18.90
2024-01-24T20:59:50.919Z,21.67
2024-01-24T21:02:21.631Z,27.10
2024-01-24T21:04:52.135Z,23.88
2024-01-24T21:07:23.221Z,20.75
2024-01-24T21:09:53.712Z,23.52
2024-01-24T21:12:23.730Z,18.58
2024-01-24T21:14:56.271Z,24.73
2024-01-24T21:17:26.262Z,21.20
2024-01-24T21:22:26.668Z,22.48
2024-01-24T21:24:56.795Z,19.13
2024-01-24T21:27:28.443Z,25.05
2024-01-24T21:30:01.103Z,22.27
2024-01-24T21:32:31.138Z,22.13
2024-01-24T21:35:01.498Z,19.67
2024-01-24T21:37:31.533Z,24.13
2024-01-24T21:40:01.520Z,17.42
2024-01-24T21:42:31.633Z,19.20
2024-01-24T21:45:04.860Z,21.35
2024-01-24T21:47:34.892Z,20.23
2024-01-24T21:50:04.919Z,24.25
2024-01-24T21:52:34.975Z,19.58
2024-01-24T21:55:05.069Z,19.73
2024-01-24T21:57:35.233Z,23.30
2024-01-24T22:00:09.243Z,21.60
2024-01-24T22:02:39.253Z,24.08
2024-01-24T22:05:09.733Z,18.80
2024-01-24T22:07:39.967Z,22.20
2024-01-24T22:10:11.682Z,20.48
2024-01-24T22:12:41.929Z,24.73
2024-01-24T22:15:16.872Z,24.98
2024-01-24T22:17:46.883Z,28.48
2024-01-24T22:20:17.221Z,23.83
2024-01-24T22:22:47.314Z,22.33
2024-01-24T22:25:17.392Z,24.50
2024-01-24T22:27:47.431Z,20.92
2024-01-24T22:30:20.596Z,19.77
2024-01-24T22:32:50.660Z,21.33
2024-01-24T22:35:22.455Z,21.90
2024-01-24T22:37:52.618Z,20.58
2024-01-24T22:40:22.710Z,22.17
2024-01-24T22:42:52.815Z,24.45
2024-01-24T22:45:25.429Z,23.70
2024-01-24T22:47:56.288Z,19.95
2024-01-24T22:50:26.806Z,22.38
2024-01-24T22:52:56.873Z,22.50
2024-01-24T22:55:26.920Z,24.85
2024-01-24T22:57:57.131Z,23.58
2024-01-24T23:00:29.816Z,21.63
2024-01-24T23:02:59.992Z,17.77
2024-01-24T23:05:30.119Z,26.92
2024-01-24T23:08:00.390Z,20.67
2024-01-24T23:10:30.497Z,22.33
2024-01-24T23:13:00.493Z,24.95
2024-01-24T23:15:33.168Z,25.52
2024-01-24T23:18:03.191Z,22.13
2024-01-24T23:20:33.369Z,17.27
2024-01-24T23:23:03.317Z,21.25
2024-01-24T23:25:33.495Z,23.33
2024-01-24T23:28:03.547Z,21.05
2024-01-24T23:30:36.562Z,26.85
2024-01-24T23:33:06.897Z,17.15
2024-01-24T23:35:36.924Z,20.77
2024-01-24T23:38:07.185Z,27.92
2024-01-24T23:40:37.216Z,24.83
2024-01-24T23:43:07.639Z,21.85
2024-01-24T23:45:40.713Z,21.15
2024-01-24T23:48:11.333Z,23.83
2024-01-24T23:50:41.534Z,24.45
2024-01-24T23:53:11.515Z,21.35
2024-01-24T23:55:41.421Z,19.30
2024-01-24T23:58:11.347Z,24.08
